sensor_id;sensor_type;location;lat;lon;timestamp;P1;durP1;ratioP1;P2;durP2;ratioP2
2123;SDS011;1068;52.460;13.528;2024-02-14T00:02:04;6.80;;;5.18;;
2123;SDS011;1068;52.460;13.528;2024-02-14T00:04:31;5.57;;;5.07;;
2123;SDS011;1068;52.460;13.528;2024-02-14T00:06:59;9.48;;;5.53;;
2123;SDS011;1068;52.460;13.528;2024-02-14T00:09:26;5.63;;;5.22;;
2123;SDS011;1068;52.460;13.528;2024-02-14T00:11:53;5.68;;;4.80;;
2123;SDS011;1068;52.460;13.528;2024-02-14T00:14:20;5.30;;;4.80;;
2123;SDS011;1068;52.460;13.528;2024-02-14T00:16:47;6.38;;;5.45;;
2123;SDS011;1068;52.460;13.528;2024-02-14T00:19:14;6.50;;;5.32;;
2123;SDS011;1068;52.460;13.528;2024-02-14T00:21:41;7.28;;;6.20;;
2123;SDS011;1068;52.460;13.528;2024-02-14T00:24:09;6.15;;;5.55;;
2123;SDS011;1068;52.460;13.528;2024-02-14T00:26:37;5.60;;;5.20;;
2123;SDS011;1068;52.460;13.528;2024-02-14T00:29:04;7.10;;;5.88;;
2123;SDS011;1068;52.460;13.528;2024-02-14T00:31:31;7.40;;;5.20;;
2123;SDS011;1068;52.460;13.528;2024-02-14T00:33:58;7.43;;;6.55;;
2123;SDS011;1068;52.460;13.528;2024-02-14T00:36:25;8.40;;;6.93;;
2123;SDS011;1068;52.460;13.528;2024-02-14T00:38:52;7.82;;;7.03;;
2123;SDS011;1068;52.460;13.528;2024-02-14T00:41:20;7.60;;;6.80;;
2123;SDS011;1068;52.460;13.528;2024-02-14T00:43:47;10.48;;;7.72;;
2123;SDS011;1068;52.460;13.528;2024-02-14T00:46:15;7.55;;;6.43;;
2123;SDS011;1068;52.460;13.528;2024-02-14T00:48:43;5.53;;;5.03;;
2123;SDS011;1068;52.460;13.528;2024-02-14T00:51:10;6.68;;;6.18;;
2123;SDS011;1068;52.460;13.528;2024-02-14T00:53:37;7.80;;;5.80;;
2123;SDS011;1068;52.460;13.528;2024-02-14T00:56:04;6.15;;;5.55;;
2123;SDS011;1068;52.460;13.528;2024-02-14T00:58:32;4.90;;;4.50;;
2123;SDS011;1068;52.460;13.528;2024-02-14T01:00:59;6.40;;;5.28;;
2123;SDS011;1068;52.460;13.528;2024-02-14T01:03:27;12.52;;;6.43;;
2123;SDS011;1068;52.460;13.528;2024-02-14T01:05:54;6.28;;;5.68;;
2123;SDS011;1068;52.460;13.528;2024-02-14T01:08:20;7.22;;;5.72;;
2123;SDS011;1068;52.460;13.528;2024-02-14T01:10:47;5.85;;;5.32;;
2123;SDS011;1068;52.460;13.528;2024-02-14T01:13:15;6.63;;;5.78;;
2123;SDS011;1068;52.460;13.528;2024-02-14T01:15:43;6.47;;;5.97;;
2123;SDS011;1068;52.460;13.528;2024-02-14T01:18:10;6.13;;;5.72;;
2123;SDS011;1068;52.460;13.528;2024-02-14T01:20:37;6.10;;;5.50;;
2123;SDS011;1068;52.460;13.528;2024-02-14T01:23:04;6.70;;;5.90;;
2123;SDS011;1068;52.460;13.528;2024-02-14T01:25:31;7.38;;;5.60;;
2123;SDS011;1068;52.460;13.528;2024-02-14T01:27:59;7.57;;;6.20;;
2123;SDS011;1068;52.460;13.528;2024-02-14T01:30:26;30.13;;;8.02;;
2123;SDS011;1068;52.460;13.528;2024-02-14T01:32:54;8.80;;;6.03;;
2123;SDS011;1068;52.460;13.528;2024-02-14T01:35:21;5.82;;;5.32;;
2123;SDS011;1068;52.460;13.528;2024-02-14T01:37:48;6.82;;;5.82;;
2123;SDS011;1068;52.460;13.528;2024-02-14T01:40:17;6.20;;;5.60;;
2123;SDS011;1068;52.460;13.528;2024-02-14T01:42:44;7.27;;;6.57;;
2123;SDS011;1068;52.460;13.528;2024-02-14T01:45:11;8.98;;;6.22;;
2123;SDS011;1068;52.460;13.528;2024-02-14T01:47:38;6.88;;;6.22;;
2123;SDS011;1068;52.460;13.528;2024-02-14T01:50:08;6.18;;;5.68;;
2123;SDS011;1068;52.460;13.528;2024-02-14T01:52:36;6.30;;;5.70;;
2123;SDS011;1068;52.460;13.528;2024-02-14T01:55:04;6.53;;;5.93;;
2123;SDS011;1068;52.460;13.528;2024-02-14T01:57:31;6.45;;;5.85;;
2123;SDS011;1068;52.460;13.528;2024-02-14T01:59:59;5.75;;;5.35;;
2123;SDS011;1068;52.460;13.528;2024-02-14T02:02:29;8.30;;;6.78;;
2123;SDS011;1068;52.460;13.528;2024-02-14T02:04:57;7.22;;;6.50;;
2123;SDS011;1068;52.460;13.528;2024-02-14T02:07:25;6.60;;;5.10;;
2123;SDS011;1068;52.460;13.528;2024-02-14T02:09:52;6.18;;;5.50;;
2123;SDS011;1068;52.460;13.528;2024-02-14T02:12:19;7.22;;;6.30;;
2123;SDS011;1068;52.460;13.528;2024-02-14T02:14:46;9.25;;;6.38;;
2123;SDS011;1068;52.460;13.528;2024-02-14T02:17:12;7.10;;;6.05;;
2123;SDS011;1068;52.460;13.528;2024-02-14T02:19:40;6.35;;;5.75;;
2123;SDS011;1068;52.460;13.528;2024-02-14T02:22:07;6.50;;;5.35;;
2123;SDS011;1068;52.460;13.528;2024-02-14T02:24:36;6.63;;;5.95;;
2123;SDS011;1068;52.460;13.528;2024-02-14T02:27:03;7.30;;;5.70;;
2123;SDS011;1068;52.460;13.528;2024-02-14T02:29:30;9.10;;;6.85;;
2123;SDS011;1068;52.460;13.528;2024-02-14T02:31:57;7.38;;;5.70;;
2123;SDS011;1068;52.460;13.528;2024-02-14T02:34:24;6.70;;;6.00;;
2123;SDS011;1068;52.460;13.528;2024-02-14T02:36:51;7.13;;;6.43;;
2123;SDS011;1068;52.460;13.528;2024-02-14T02:39:18;7.00;;;6.30;;
2123;SDS011;1068;52.460;13.528;2024-02-14T02:41:46;6.53;;;5.85;;
2123;SDS011;1068;52.460;13.528;2024-02-14T02:44:14;6.50;;;5.90;;
2123;SDS011;1068;52.460;13.528;2024-02-14T02:46:41;6.95;;;6.25;;
2123;SDS011;1068;52.460;13.528;2024-02-14T02:49:10;5.95;;;5.32;;
2123;SDS011;1068;52.460;13.528;2024-02-14T02:51:38;6.07;;;5.53;;
2123;SDS011;1068;52.460;13.528;2024-02-14T02:54:05;6.72;;;6.07;;
2123;SDS011;1068;52.460;13.528;2024-02-14T02:56:33;7.15;;;5.85;;
2123;SDS011;1068;52.460;13.528;2024-02-14T02:59:01;8.32;;;5.80;;
2123;SDS011;1068;52.460;13.528;2024-02-14T03:01:34;7.13;;;5.95;;
2123;SDS011;1068;52.460;13.528;2024-02-14T03:04:01;10.80;;;6.25;;
2123;SDS011;1068;52.460;13.528;2024-02-14T03:06:28;6.93;;;5.88;;
2123;SDS011;1068;52.460;13.528;2024-02-14T03:08:55;8.57;;;6.43;;
2123;SDS011;1068;52.460;13.528;2024-02-14T03:11:22;6.93;;;6.13;;
2123;SDS011;1068;52.460;13.528;2024-02-14T03:13:51;6.55;;;5.85;;
2123;SDS011;1068;52.460;13.528;2024-02-14T03:16:19;7.97;;;6.10;;
2123;SDS011;1068;52.460;13.528;2024-02-14T03:18:46;6.65;;;6.05;;
2123;SDS011;1068;52.460;13.528;2024-02-14T03:21:13;6.95;;;6.25;;
2123;SDS011;1068;52.460;13.528;2024-02-14T03:23:40;6.60;;;6.00;;
2123;SDS011;1068;52.460;13.528;2024-02-14T03:26:07;6.35;;;5.30;;
2123;SDS011;1068;52.460;13.528;2024-02-14T03:28:35;5.82;;;5.40;;
2123;SDS011;1068;52.460;13.528;2024-02-14T03:31:02;8.77;;;7.63;;
2123;SDS011;1068;52.460;13.528;2024-02-14T03:33:31;6.95;;;6.10;;
2123;SDS011;1068;52.460;13.528;2024-02-14T03:35:58;6.00;;;5.50;;
2123;SDS011;1068;52.460;13.528;2024-02-14T03:38:25;7.68;;;5.97;;
2123;SDS011;1068;52.460;13.528;2024-02-14T03:40:52;6.57;;;5.90;;
2123;SDS011;1068;52.460;13.528;2024-02-14T03:43:19;6.55;;;5.95;;
2123;SDS011;1068;52.460;13.528;2024-02-14T03:45:48;7.75;;;6.95;;
2123;SDS011;1068;52.460;13.528;2024-02-14T03:48:16;6.05;;;5.47;;
2123;SDS011;1068;52.460;13.528;2024-02-14T03:50:44;8.07;;;6.20;;
2123;SDS011;1068;52.460;13.528;2024-02-14T03:53:11;7.78;;;5.90;;
2123;SDS011;1068;52.460;13.528;2024-02-14T03:55:40;6.50;;;5.82;;
2123;SDS011;1068;52.460;13.528;2024-02-14T03:58:06;5.80;;;5.20;;
2123;SDS011;1068;52.460;13.528;2024-02-14T04:00:33;6.90;;;6.30;;
2123;SDS011;1068;52.460;13.528;2024-02-14T04:03:00;6.30;;;5.70;;
2123;SDS011;1068;52.460;13.528;2024-02-14T04:05:27;7.90;;;6.43;;
2123;SDS011;1068;52.460;13.528;2024-02-14T04:07:56;7.25;;;6.00;;
2123;SDS011;1068;52.460;13.528;2024-02-14T04:10:22;6.73;;;6.00;;
2123;SDS011;1068;52.460;13.528;2024-02-14T04:12:49;6.00;;;5.45;;
2123;SDS011;1068;52.460;13.528;2024-02-14T04:15:16;7.63;;;6.05;;
2123;SDS011;1068;52.460;13.528;2024-02-14T04:17:43;7.33;;;5.80;;
2123;SDS011;1068;52.460;13.528;2024-02-14T04:20:10;5.90;;;5.30;;
2123;SDS011;1068;52.460;13.528;2024-02-14T04:22:37;6.97;;;5.20;;
2123;SDS011;1068;52.460;13.528;2024-02-14T04:25:07;5.90;;;5.30;;
2123;SDS011;1068;52.460;13.528;2024-02-14T04:27:34;7.10;;;5.32;;
2123;SDS011;1068;52.460;13.528;2024-02-14T04:30:01;11.57;;;5.57;;
2123;SDS011;1068;52.460;13.528;2024-02-14T04:32:28;5.70;;;5.20;;
2123;SDS011;1068;52.460;13.528;2024-02-14T04:34:55;6.47;;;5.70;;
2123;SDS011;1068;52.460;13.528;2024-02-14T04:37:22;8.38;;;5.18;;
2123;SDS011;1068;52.460;13.528;2024-02-14T04:39:49;7.40;;;5.25;;
2123;SDS011;1068;52.460;13.528;2024-02-14T04:42:18;8.48;;;6.05;;
2123;SDS011;1068;52.460;13.528;2024-02-14T04:44:45;5.50;;;5.00;;
2123;SDS011;1068;52.460;13.528;2024-02-14T04:47:11;5.70;;;5.20;;
2123;SDS011;1068;52.460;13.528;2024-02-14T04:49:39;5.72;;;5.22;;
2123;SDS011;1068;52.460;13.528;2024-02-14T04:52:06;5.55;;;4.85;;
2123;SDS011;1068;52.460;13.528;2024-02-14T04:54:33;6.57;;;5.90;;
2123;SDS011;1068;52.460;13.528;2024-02-14T04:57:00;5.50;;;4.93;;
2123;SDS011;1068;52.460;13.528;2024-02-14T04:59:30;11.27;;;5.90;;
2123;SDS011;1068;52.460;13.528;2024-02-14T05:01:57;6.85;;;5.00;;
2123;SDS011;1068;52.460;13.528;2024-02-14T05:04:24;6.90;;;5.63;;
2123;SDS011;1068;52.460;13.528;2024-02-14T05:06:52;10.37;;;4.60;;
2123;SDS011;1068;52.460;13.528;2024-02-14T05:09:19;5.32;;;4.82;;
2123;SDS011;1068;52.460;13.528;2024-02-14T05:11:46;5.77;;;4.70;;
2123;SDS011;1068;52.460;13.528;2024-02-14T05:14:13;5.75;;;5.13;;
2123;SDS011;1068;52.460;13.528;2024-02-14T05:16:42;7.55;;;5.55;;
2123;SDS011;1068;52.460;13.528;2024-02-14T05:19:09;7.63;;;6.03;;
2123;SDS011;1068;52.460;13.528;2024-02-14T05:21:36;5.47;;;4.97;;
2123;SDS011;1068;52.460;13.528;2024-02-14T05:24:03;8.23;;;4.50;;
2123;SDS011;1068;52.460;13.528;2024-02-14T05:26:31;7.13;;;5.10;;
2123;SDS011;1068;52.460;13.528;2024-02-14T05:28:57;10.77;;;5.20;;
2123;SDS011;1068;52.460;13.528;2024-02-14T05:31:25;7.45;;;5.25;;
2123;SDS011;1068;52.460;13.528;2024-02-14T05:33:57;5.43;;;4.87;;
2123;SDS011;1068;52.460;13.528;2024-02-14T05:36:23;5.63;;;4.70;;
2123;SDS011;1068;52.460;13.528;2024-02-14T05:38:50;6.60;;;4.97;;
2123;SDS011;1068;52.460;13.528;2024-02-14T05:41:18;5.27;;;4.43;;
2123;SDS011;1068;52.460;13.528;2024-02-14T05:43:44;7.00;;;5.40;;
2123;SDS011;1068;52.460;13.528;2024-02-14T05:46:11;6.70;;;5.70;;
2123;SDS011;1068;52.460;13.528;2024-02-14T05:48:38;7.72;;;5.22;;
2123;SDS011;1068;52.460;13.528;2024-02-14T05:51:07;5.88;;;5.03;;
2123;SDS011;1068;52.460;13.528;2024-02-14T05:53:34;6.40;;;5.80;;
2123;SDS011;1068;52.460;13.528;2024-02-14T05:56:01;9.33;;;4.70;;
2123;SDS011;1068;52.460;13.528;2024-02-14T05:58:27;5.75;;;5.20;;
2123;SDS011;1068;52.460;13.528;2024-02-14T06:00:54;7.80;;;4.80;;
2123;SDS011;1068;52.460;13.528;2024-02-14T06:03:22;5.22;;;4.68;;
2123;SDS011;1068;52.460;13.528;2024-02-14T06:05:49;9.30;;;6.10;;
2123;SDS011;1068;52.460;13.528;2024-02-14T06:08:17;5.80;;;4.97;;
2123;SDS011;1068;52.460;13.528;2024-02-14T06:10:44;6.73;;;4.97;;
2123;SDS011;1068;52.460;13.528;2024-02-14T06:13:11;6.18;;;4.60;;
2123;SDS011;1068;52.460;13.528;2024-02-14T06:15:38;9.70;;;5.33;;
2123;SDS011;1068;52.460;13.528;2024-02-14T06:18:05;6.28;;;4.30;;
2123;SDS011;1068;52.460;13.528;2024-02-14T06:20:32;8.80;;;5.17;;
2123;SDS011;1068;52.460;13.528;2024-02-14T06:22:59;5.43;;;4.55;;
2123;SDS011;1068;52.460;13.528;2024-02-14T06:25:27;8.90;;;5.30;;
2123;SDS011;1068;52.460;13.528;2024-02-14T06:27:54;4.32;;;3.92;;
2123;SDS011;1068;52.460;13.528;2024-02-14T06:30:21;5.78;;;4.88;;
2123;SDS011;1068;52.460;13.528;2024-02-14T06:32:48;5.97;;;4.63;;
2123;SDS011;1068;52.460;13.528;2024-02-14T06:35:15;7.37;;;5.23;;
2123;SDS011;1068;52.460;13.528;2024-02-14T06:37:43;9.40;;;5.10;;
2123;SDS011;1068;52.460;13.528;2024-02-14T06:40:11;8.03;;;5.07;;
2123;SDS011;1068;52.460;13.528;2024-02-14T06:42:39;4.97;;;4.43;;
2123;SDS011;1068;52.460;13.528;2024-02-14T06:45:06;6.13;;;5.03;;
2123;SDS011;1068;52.460;13.528;2024-02-14T06:47:33;9.23;;;5.30;;
2123;SDS011;1068;52.460;13.528;2024-02-14T06:50:00;7.20;;;5.10;;
2123;SDS011;1068;52.460;13.528;2024-02-14T06:52:27;9.48;;;5.15;;
2123;SDS011;1068;52.460;13.528;2024-02-14T06:54:54;8.30;;;5.63;;
2123;SDS011;1068;52.460;13.528;2024-02-14T06:57:21;6.10;;;4.60;;
2123;SDS011;1068;52.460;13.528;2024-02-14T06:59:49;5.27;;;4.77;;
2123;SDS011;1068;52.460;13.528;2024-02-14T07:02:17;6.93;;;4.13;;
2123;SDS011;1068;52.460;13.528;2024-02-14T07:04:44;7.60;;;4.30;;
2123;SDS011;1068;52.460;13.528;2024-02-14T07:07:11;8.57;;;5.07;;
2123;SDS011;1068;52.460;13.528;2024-02-14T07:09:38;9.88;;;4.55;;
2123;SDS011;1068;52.460;13.528;2024-02-14T07:12:05;5.38;;;4.88;;
2123;SDS011;1068;52.460;13.528;2024-02-14T07:14:32;4.97;;;4.47;;
2123;SDS011;1068;52.460;13.528;2024-02-14T07:17:00;6.03;;;4.50;;
2123;SDS011;1068;52.460;13.528;2024-02-14T07:19:28;6.20;;;4.60;;
2123;SDS011;1068;52.460;13.528;2024-02-14T07:21:55;4.28;;;3.63;;
2123;SDS011;1068;52.460;13.528;2024-02-14T07:24:22;4.53;;;3.83;;
2123;SDS011;1068;52.460;13.528;2024-02-14T07:26:49;5.37;;;3.70;;
2123;SDS011;1068;52.460;13.528;2024-02-14T07:29:15;11.20;;;4.40;;
2123;SDS011;1068;52.460;13.528;2024-02-14T07:31:42;4.40;;;4.10;;
2123;SDS011;1068;52.460;13.528;2024-02-14T07:34:11;6.20;;;4.10;;
2123;SDS011;1068;52.460;13.528;2024-02-14T07:36:38;4.50;;;3.87;;
2123;SDS011;1068;52.460;13.528;2024-02-14T07:39:06;4.13;;;3.73;;
2123;SDS011;1068;52.460;13.528;2024-02-14T07:41:33;4.17;;;3.87;;
2123;SDS011;1068;52.460;13.528;2024-02-14T07:44:00;4.67;;;3.90;;
2123;SDS011;1068;52.460;13.528;2024-02-14T07:46:27;7.00;;;4.63;;
2123;SDS011;1068;52.460;13.528;2024-02-14T07:48:55;8.07;;;4.20;;
2123;SDS011;1068;52.460;13.528;2024-02-14T07:51:24;3.43;;;3.00;;
2123;SDS011;1068;52.460;13.528;2024-02-14T07:53:53;6.43;;;3.60;;
2123;SDS011;1068;52.460;13.528;2024-02-14T07:56:20;7.27;;;4.10;;
2123;SDS011;1068;52.460;13.528;2024-02-14T07:58:47;3.73;;;3.37;;
2123;SDS011;1068;52.460;13.528;2024-02-14T08:01:15;3.17;;;2.80;;
2123;SDS011;1068;52.460;13.528;2024-02-14T08:03:41;4.77;;;3.30;;
2123;SDS011;1068;52.460;13.528;2024-02-14T08:06:10;4.27;;;3.90;;
2123;SDS011;1068;52.460;13.528;2024-02-14T08:08:39;5.57;;;3.60;;
2123;SDS011;1068;52.460;13.528;2024-02-14T08:11:06;5.43;;;3.63;;
2123;SDS011;1068;52.460;13.528;2024-02-14T08:13:32;3.70;;;3.33;;
2123;SDS011;1068;52.460;13.528;2024-02-14T08:15:59;5.07;;;3.90;;
2123;SDS011;1068;52.460;13.528;2024-02-14T08:18:26;3.70;;;3.37;;
2123;SDS011;1068;52.460;13.528;2024-02-14T08:20:53;9.70;;;3.87;;
2123;SDS011;1068;52.460;13.528;2024-02-14T08:23:20;3.53;;;3.23;;
2123;SDS011;1068;52.460;13.528;2024-02-14T08:25:48;13.67;;;4.17;;
2123;SDS011;1068;52.460;13.528;2024-02-14T08:28:15;11.93;;;3.43;;
2123;SDS011;1068;52.460;13.528;2024-02-14T08:30:43;5.43;;;3.00;;
2123;SDS011;1068;52.460;13.528;2024-02-14T08:33:10;4.43;;;2.90;;
2123;SDS011;1068;52.460;13.528;2024-02-14T08:35:37;5.93;;;3.47;;
2123;SDS011;1068;52.460;13.528;2024-02-14T08:38:04;2.50;;;2.30;;
2123;SDS011;1068;52.460;13.528;2024-02-14T08:40:33;3.83;;;3.50;;
2123;SDS011;1068;52.460;13.528;2024-02-14T08:43:01;4.20;;;3.10;;
2123;SDS011;1068;52.460;13.528;2024-02-14T08:45:29;2.43;;;2.23;;
2123;SDS011;1068;52.460;13.528;2024-02-14T08:47:56;4.03;;;2.93;;
2123;SDS011;1068;52.460;13.528;2024-02-14T08:50:23;3.07;;;2.80;;
2123;SDS011;1068;52.460;13.528;2024-02-14T08:52:50;3.37;;;3.07;;
2123;SDS011;1068;52.460;13.528;2024-02-14T08:55:17;5.23;;;3.13;;
2123;SDS011;1068;52.460;13.528;2024-02-14T08:57:44;2.80;;;2.60;;
2123;SDS011;1068;52.460;13.528;2024-02-14T09:00:14;3.30;;;2.40;;
2123;SDS011;1068;52.460;13.528;2024-02-14T09:02:44;8.17;;;3.10;;
2123;SDS011;1068;52.460;13.528;2024-02-14T09:05:12;3.13;;;2.70;;
2123;SDS011;1068;52.460;13.528;2024-02-14T09:07:39;2.60;;;2.40;;
2123;SDS011;1068;52.460;13.528;2024-02-14T09:10:07;3.10;;;2.67;;
2123;SDS011;1068;52.460;13.528;2024-02-14T09:12:35;3.00;;;2.30;;
2123;SDS011;1068;52.460;13.528;2024-02-14T09:15:02;3.40;;;3.10;;
2123;SDS011;1068;52.460;13.528;2024-02-14T09:17:31;3.17;;;2.60;;
2123;SDS011;1068;52.460;13.528;2024-02-14T09:19:58;3.87;;;3.07;;
2123;SDS011;1068;52.460;13.528;2024-02-14T09:22:25;3.27;;;2.57;;
2123;SDS011;1068;52.460;13.528;2024-02-14T09:24:53;3.70;;;3.13;;
2123;SDS011;1068;52.460;13.528;2024-02-14T09:27:21;2.47;;;2.27;;
2123;SDS011;1068;52.460;13.528;2024-02-14T09:29:48;2.90;;;2.70;;
2123;SDS011;1068;52.460;13.528;2024-02-14T09:32:15;3.07;;;2.70;;
2123;SDS011;1068;52.460;13.528;2024-02-14T09:34:43;3.73;;;2.60;;
2123;SDS011;1068;52.460;13.528;2024-02-14T09:37:11;3.13;;;2.83;;
2123;SDS011;1068;52.460;13.528;2024-02-14T09:39:38;4.10;;;2.73;;
2123;SDS011;1068;52.460;13.528;2024-02-14T09:42:08;3.43;;;2.63;;
2123;SDS011;1068;52.460;13.528;2024-02-14T09:44:35;3.60;;;2.80;;
2123;SDS011;1068;52.460;13.528;2024-02-14T09:47:04;4.50;;;2.80;;
2123;SDS011;1068;52.460;13.528;2024-02-14T09:49:32;3.53;;;2.90;;
2123;SDS011;1068;52.460;13.528;2024-02-14T09:52:00;3.13;;;2.77;;
2123;SDS011;1068;52.460;13.528;2024-02-14T09:54:28;3.00;;;2.30;;
2123;SDS011;1068;52.460;13.528;2024-02-14T09:56:56;2.50;;;2.30;;
2123;SDS011;1068;52.460;13.528;2024-02-14T09:59:24;7.17;;;3.23;;
2123;SDS011;1068;52.460;13.528;2024-02-14T10:01:51;3.80;;;2.53;;
2123;SDS011;1068;52.460;13.528;2024-02-14T10:04:18;7.60;;;3.20;;
2123;SDS011;1068;52.460;13.528;2024-02-14T10:06:47;2.90;;;2.70;;
2123;SDS011;1068;52.460;13.528;2024-02-14T10:09:19;3.00;;;2.80;;
2123;SDS011;1068;52.460;13.528;2024-02-14T10:11:46;3.60;;;3.00;;
2123;SDS011;1068;52.460;13.528;2024-02-14T10:14:15;4.73;;;2.80;;
2123;SDS011;1068;52.460;13.528;2024-02-14T10:16:43;4.20;;;3.57;;
2123;SDS011;1068;52.460;13.528;2024-02-14T10:19:14;2.80;;;2.60;;
2123;SDS011;1068;52.460;13.528;2024-02-14T10:21:41;3.17;;;2.87;;
2123;SDS011;1068;52.460;13.528;2024-02-14T10:24:08;2.93;;;2.63;;
2123;SDS011;1068;52.460;13.528;2024-02-14T10:26:37;11.27;;;4.30;;
2123;SDS011;1068;52.460;13.528;2024-02-14T10:29:05;4.00;;;3.10;;
2123;SDS011;1068;52.460;13.528;2024-02-14T10:31:35;2.77;;;2.60;;
2123;SDS011;1068;52.460;13.528;2024-02-14T10:34:02;2.77;;;2.57;;
2123;SDS011;1068;52.460;13.528;2024-02-14T10:36:31;3.67;;;2.47;;
2123;SDS011;1068;52.460;13.528;2024-02-14T10:38:59;2.50;;;2.30;;
2123;SDS011;1068;52.460;13.528;2024-02-14T10:41:28;3.10;;;2.20;;
2123;SDS011;1068;52.460;13.528;2024-02-14T10:44:02;3.17;;;2.30;;
2123;SDS011;1068;52.460;13.528;2024-02-14T10:46:31;3.07;;;2.60;;
2123;SDS011;1068;52.460;13.528;2024-02-14T10:49:02;2.83;;;2.63;;
2123;SDS011;1068;52.460;13.528;2024-02-14T10:51:30;2.70;;;2.50;;
2123;SDS011;1068;52.460;13.528;2024-02-14T10:53:57;5.47;;;2.23;;
2123;SDS011;1068;52.460;13.528;2024-02-14T10:56:25;3.87;;;2.50;;
2123;SDS011;1068;52.460;13.528;2024-02-14T10:58:55;2.60;;;2.40;;
2123;SDS011;1068;52.460;13.528;2024-02-14T11:01:25;3.07;;;2.40;;
2123;SDS011;1068;52.460;13.528;2024-02-14T11:03:53;3.13;;;2.60;;
2123;SDS011;1068;52.460;13.528;2024-02-14T11:06:22;2.40;;;2.20;;
2123;SDS011;1068;52.460;13.528;2024-02-14T11:08:55;3.63;;;2.03;;
2123;SDS011;1068;52.460;13.528;2024-02-14T11:11:22;3.83;;;2.17;;
2123;SDS011;1068;52.460;13.528;2024-02-14T11:13:51;2.60;;;2.40;;
2123;SDS011;1068;52.460;13.528;2024-02-14T11:16:22;3.00;;;2.70;;
2123;SDS011;1068;52.460;13.528;2024-02-14T11:18:50;4.43;;;2.50;;
2123;SDS011;1068;52.460;13.528;2024-02-14T11:21:19;2.60;;;2.40;;
2123;SDS011;1068;52.460;13.528;2024-02-14T11:23:52;2.40;;;2.20;;
2123;SDS011;1068;52.460;13.528;2024-02-14T11:26:20;2.50;;;2.30;;
2123;SDS011;1068;52.460;13.528;2024-02-14T11:28:48;2.77;;;2.57;;
2123;SDS011;1068;52.460;13.528;2024-02-14T11:31:16;3.30;;;2.30;;
2123;SDS011;1068;52.460;13.528;2024-02-14T11:33:43;3.70;;;2.33;;
2123;SDS011;1068;52.460;13.528;2024-02-14T11:36:13;2.50;;;2.30;;
2123;SDS011;1068;52.460;13.528;2024-02-14T11:38:40;4.40;;;2.23;;
2123;SDS011;1068;52.460;13.528;2024-02-14T11:41:07;3.87;;;2.40;;
2123;SDS011;1068;52.460;13.528;2024-02-14T11:43:34;4.40;;;2.73;;
2123;SDS011;1068;52.460;13.528;2024-02-14T11:46:02;2.70;;;2.50;;
2123;SDS011;1068;52.460;13.528;2024-02-14T11:48:29;5.10;;;2.77;;
2123;SDS011;1068;52.460;13.528;2024-02-14T11:50:57;2.73;;;2.53;;
2123;SDS011;1068;52.460;13.528;2024-02-14T11:53:25;4.37;;;2.30;;
2123;SDS011;1068;52.460;13.528;2024-02-14T11:55:53;3.90;;;2.30;;
2123;SDS011;1068;52.460;13.528;2024-02-14T11:58:20;4.00;;;2.30;;
2123;SDS011;1068;52.460;13.528;2024-02-14T12:00:47;3.37;;;2.47;;
2123;SDS011;1068;52.460;13.528;2024-02-14T12:03:15;9.07;;;2.70;;
2123;SDS011;1068;52.460;13.528;2024-02-14T12:05:43;3.13;;;2.33;;
2123;SDS011;1068;52.460;13.528;2024-02-14T12:08:12;2.97;;;2.77;;
2123;SDS011;1068;52.460;13.528;2024-02-14T12:10:41;2.80;;;2.57;;
2123;SDS011;1068;52.460;13.528;2024-02-14T12:13:12;6.37;;;2.03;;
2123;SDS011;1068;52.460;13.528;2024-02-14T12:15:39;3.80;;;2.70;;
2123;SDS011;1068;52.460;13.528;2024-02-14T12:18:07;5.53;;;2.87;;
2123;SDS011;1068;52.460;13.528;2024-02-14T12:20:35;2.40;;;2.10;;
2123;SDS011;1068;52.460;13.528;2024-02-14T12:23:02;4.07;;;2.77;;
2123;SDS011;1068;52.460;13.528;2024-02-14T12:25:29;4.73;;;2.80;;
2123;SDS011;1068;52.460;13.528;2024-02-14T12:27:58;2.80;;;2.60;;
2123;SDS011;1068;52.460;13.528;2024-02-14T12:30:28;2.37;;;2.23;;
2123;SDS011;1068;52.460;13.528;2024-02-14T12:33:00;3.13;;;2.50;;
2123;SDS011;1068;52.460;13.528;2024-02-14T12:35:33;3.03;;;2.80;;
2123;SDS011;1068;52.460;13.528;2024-02-14T12:38:05;4.27;;;3.30;;
2123;SDS011;1068;52.460;13.528;2024-02-14T12:40:34;4.33;;;2.40;;
2123;SDS011;1068;52.460;13.528;2024-02-14T12:43:03;5.33;;;2.87;;
2123;SDS011;1068;52.460;13.528;2024-02-14T12:45:30;3.20;;;2.53;;
2123;SDS011;1068;52.460;13.528;2024-02-14T12:47:57;2.83;;;2.63;;
2123;SDS011;1068;52.460;13.528;2024-02-14T12:50:24;3.00;;;2.80;;
2123;SDS011;1068;52.460;13.528;2024-02-14T12:52:52;4.50;;;2.43;;
2123;SDS011;1068;52.460;13.528;2024-02-14T12:55:19;3.77;;;2.70;;
2123;SDS011;1068;52.460;13.528;2024-02-14T12:57:45;6.27;;;3.53;;
2123;SDS011;1068;52.460;13.528;2024-02-14T13:00:14;4.67;;;3.07;;
2123;SDS011;1068;52.460;13.528;2024-02-14T13:02:41;3.10;;;2.50;;
2123;SDS011;1068;52.460;13.528;2024-02-14T13:05:09;3.90;;;2.83;;
2123;SDS011;1068;52.460;13.528;2024-02-14T13:07:36;3.00;;;2.80;;
2123;SDS011;1068;52.460;13.528;2024-02-14T13:10:03;3.20;;;2.90;;
2123;SDS011;1068;52.460;13.528;2024-02-14T13:12:30;3.67;;;2.93;;
2123;SDS011;1068;52.460;13.528;2024-02-14T13:14:57;5.47;;;4.10;;
2123;SDS011;1068;52.460;13.528;2024-02-14T13:17:25;6.30;;;3.67;;
2123;SDS011;1068;52.460;13.528;2024-02-14T13:19:54;10.60;;;8.07;;
2123;SDS011;1068;52.460;13.528;2024-02-14T13:22:21;7.83;;;3.60;;
2123;SDS011;1068;52.460;13.528;2024-02-14T13:24:48;8.43;;;4.67;;
2123;SDS011;1068;52.460;13.528;2024-02-14T13:27:15;3.83;;;2.90;;
2123;SDS011;1068;52.460;13.528;2024-02-14T13:29:42;4.60;;;2.90;;
2123;SDS011;1068;52.460;13.528;2024-02-14T13:32:09;3.73;;;3.47;;
2123;SDS011;1068;52.460;13.528;2024-02-14T13:34:37;6.80;;;3.40;;
2123;SDS011;1068;52.460;13.528;2024-02-14T13:37:04;3.37;;;3.17;;
2123;SDS011;1068;52.460;13.528;2024-02-14T13:39:31;5.47;;;3.47;;
2123;SDS011;1068;52.460;13.528;2024-02-14T13:41:58;3.70;;;3.40;;
2123;SDS011;1068;52.460;13.528;2024-02-14T13:44:26;4.37;;;3.97;;
2123;SDS011;1068;52.460;13.528;2024-02-14T13:46:54;3.30;;;3.00;;
2123;SDS011;1068;52.460;13.528;2024-02-14T13:49:21;10.97;;;3.20;;
2123;SDS011;1068;52.460;13.528;2024-02-14T13:51:49;2.80;;;2.70;;
2123;SDS011;1068;52.460;13.528;2024-02-14T13:54:17;3.83;;;3.43;;
2123;SDS011;1068;52.460;13.528;2024-02-14T13:56:44;3.07;;;2.87;;
2123;SDS011;1068;52.460;13.528;2024-02-14T13:59:13;3.70;;;3.40;;
2123;SDS011;1068;52.460;13.528;2024-02-14T14:01:40;3.87;;;3.10;;
2123;SDS011;1068;52.460;13.528;2024-02-14T14:04:07;3.63;;;3.23;;
2123;SDS011;1068;52.460;13.528;2024-02-14T14:06:34;2.80;;;2.60;;
2123;SDS011;1068;52.460;13.528;2024-02-14T14:09:02;3.40;;;3.10;;
2123;SDS011;1068;52.460;13.528;2024-02-14T14:11:30;4.93;;;3.20;;
2123;SDS011;1068;52.460;13.528;2024-02-14T14:13:57;6.50;;;3.67;;
2123;SDS011;1068;52.460;13.528;2024-02-14T14:16:25;4.43;;;4.03;;
2123;SDS011;1068;52.460;13.528;2024-02-14T14:18:52;3.60;;;3.30;;
2123;SDS011;1068;52.460;13.528;2024-02-14T14:21:19;3.30;;;3.00;;
2123;SDS011;1068;52.460;13.528;2024-02-14T14:23:46;4.10;;;3.47;;
2123;SDS011;1068;52.460;13.528;2024-02-14T14:26:14;3.90;;;3.60;;
2123;SDS011;1068;52.460;13.528;2024-02-14T14:28:42;3.77;;;3.47;;
2123;SDS011;1068;52.460;13.528;2024-02-14T14:31:09;7.20;;;3.77;;
2123;SDS011;1068;52.460;13.528;2024-02-14T14:33:36;6.13;;;3.43;;
2123;SDS011;1068;52.460;13.528;2024-02-14T14:36:04;4.77;;;3.30;;
2123;SDS011;1068;52.460;13.528;2024-02-14T14:38:31;3.77;;;3.47;;
2123;SDS011;1068;52.460;13.528;2024-02-14T14:40:58;5.60;;;3.70;;
2123;SDS011;1068;52.460;13.528;2024-02-14T14:43:26;7.40;;;4.90;;
2123;SDS011;1068;52.460;13.528;2024-02-14T14:45:53;4.10;;;3.80;;
2123;SDS011;1068;52.460;13.528;2024-02-14T14:48:22;7.00;;;3.70;;
2123;SDS011;1068;52.460;13.528;2024-02-14T14:50:48;4.00;;;3.70;;
2123;SDS011;1068;52.460;13.528;2024-02-14T14:53:15;3.50;;;3.13;;
2123;SDS011;1068;52.460;13.528;2024-02-14T14:55:52;5.80;;;4.00;;
2123;SDS011;1068;52.460;13.528;2024-02-14T14:58:20;4.57;;;3.70;;
2123;SDS011;1068;52.460;13.528;2024-02-14T15:00:49;4.67;;;3.60;;
2123;SDS011;1068;52.460;13.528;2024-02-14T15:03:20;3.83;;;3.53;;